Weather observations for the past three days for
Colorado Air and Space Port Airport
Imperial (Metric)
Date Time (mdt) Wind (mph) Vis. (mi.) Weather Sky Cond. Temperature (ºF) Relative Humidity Wind Chill (°F) Heat Index (°F) Pressure Precipitation (in)
Air Dwpt 6 hour altimeter (in) sea level (mb) 1 hr 3 hr 6 hr
Max. Min.
08 03:55 SW 5 10.00 Fair CLR 45 42.4 91% 43 29.99 0.0
08 03:35 SW 5 10.00 Fair CLR 45 42.6 92% 43 29.99 0.0
08 03:15 SW 3 10.00 Partly Cloudy SCT100 45.1 42.6 91% 30 0.0
08 02:55 NW 5 10.00 Partly Cloudy SCT100 45 42.4 91% 43 30.01 0.0
08 02:35 NW 6 10.00 Partly Cloudy SCT100 45.5 43 91% 43 30.03 0.0
08 02:15 W 7 10.00 Partly Cloudy SCT095 45.5 43.2 92% 42 30.03 0.0
08 01:55 W 8 10.00 Partly Cloudy SCT095 46 43.7 92% 42 30.03 0.0
08 01:35 NW 6 10.00 Fair CLR 46.4 43.7 90% 44 30.02 0.0
08 01:15 Calm 10.00 Fair CLR 48.4 44.8 87% 30.01 0.0
08 00:55 SE 5 10.00 Partly Cloudy SCT040 SCT047 SCT110 49.3 45.7 87% 48 30.01 0.0
08 00:35 S 7 7.00 Rain SCT040 BKN075 OVC090 51.1 45.9 82% 30.02 0.0
08 00:15 NW 6 10.00 Overcast SCT075 OVC090 51.1 45.5 81% 30.04 0.0
07 23:55 NE 10 10.00 Overcast OVC100 52.5 43.9 68 52.3 73% 30 0.0
07 23:35 NE 12 10.00 Mostly Cloudy BKN100 54 41.7 63% 30 0.0
07 23:15 E 10 10.00 Light Drizzle SCT055 SCT065 SCT075 52.9 42.4 68% 30 0.0
07 22:55 NE 5 10.00 Overcast SCT065 BKN080 OVC090 52.7 42.8 69% 30.03 0.0
07 22:35 E 6 10.00 Mostly Cloudy BKN100 52.3 41.9 68% 30 0.0
07 22:15 E 7 10.00 Partly Cloudy SCT110 52.9 41.5 66% 29.99 0.0
07 21:55 E 6 10.00 Mostly Cloudy SCT070 SCT075 BKN110 54.5 41 61% 30 0.0
07 21:35 NE 8 10.00 Overcast SCT070 OVC080 56.3 40.1 55% 30 0.0
07 21:15 N 9 G 17 10.00 Overcast OVC090 58.1 37.9 47% 30.01 0.0
07 18:47 N 5 10.00 Overcast OVC110 66.2 30.2 26% 29.93 0.0
07 17:47 W 15 10.00 Partly Cloudy SCT095 71.6 23 16% 29.93 0.0
07 15:47 W 20 G 28 10.00 Partly Cloudy SCT090 71.6 23 16% 29.95 0.0
07 14:47 W 21 G 30 10.00 Fair and Breezy CLR 69.8 24.8 18% 29.96 0.0
07 13:47 W 16 G 30 10.00 Fair CLR 69.8 26.6 20% 29.99 0.0
07 12:47 W 16 G 24 10.00 Fair CLR 66.2 28.4 24% 30.01 0.0
07 11:47 W 8 10.00 Mostly Cloudy BKN120 66.2 28.4 24% 30.01 0.0
07 10:47 W 13 10.00 Fair CLR 64.4 28.4 26% 30.03 0.0
07 09:47 SW 13 10.00 Fair CLR 59 28.4 31% 30.04 0.0
07 08:47 SW 13 10.00 Fair CLR 53.6 28.4 38% 30.05 0.0
07 07:47 SW 14 G 20 10.00 Fair CLR 48.2 26.6 43% 43 30.04 0.0
07 06:47 SW 15 10.00 Fair CLR 44.6 24.8 46% 38 30.13 0.0
07 06:35 SW 16 10.00 Fair CLR 42.3 23 46% 35 30.02 0.0
07 06:15 SW 16 10.00 Fair CLR 41.4 22.8 48% 34 30.02 0.0
07 05:55 SW 14 10.00 Fair CLR 41 23 41.5 37.8 49% 34 30.02 0.0
07 05:35 SW 16 10.00 Fair CLR 41.4 22.8 48% 34 30.01 0.0
07 05:15 SW 15 10.00 Fair CLR 41 23 49% 34 30.01 0.0
07 04:55 SW 15 10.00 Fair CLR 41 23.2 49% 34 30.01 0.0
07 04:35 SW 14 10.00 Fair CLR 40.3 23.7 52% 33 30.02 0.0
07 04:15 SW 16 10.00 Fair CLR 40.3 23.9 52% 33 30.03 0.0
07 03:55 SW 14 10.00 Fair CLR 40.1 24.4 54% 33 30.03 0.0
07 03:35 SW 15 10.00 Fair CLR 39.6 24.8 56% 32 30.03 0.0
07 03:15 SW 15 10.00 Fair CLR 40.1 25 55% 33 30.03 0.0
07 02:55 SW 16 10.00 Fair CLR 39.2 25.9 59% 31 30.03 0.0
07 02:35 SW 15 10.00 Fair CLR 38.8 26.6 62% 31 30.03 0.0
07 02:15 SW 16 10.00 Fair CLR 39 27.3 63% 31 30.04 0.0
07 01:55 SW 14 10.00 Fair CLR 38.5 28.4 67% 31 30.04 0.0
07 01:35 SW 16 10.00 Fair CLR 39 29.1 68% 31 30.05 0.0
07 01:15 SW 15 10.00 Fair CLR 39.2 28.4 65% 31 30.06 0.0
07 00:55 SW 14 10.00 Fair CLR 37.9 29.7 72% 30 30.06 0.0
07 00:35 SW 13 10.00 Fair CLR 39 29.8 70% 32 30.06 0.0
07 00:15 SW 13 10.00 Fair CLR 38.5 31.1 75% 31 30.06 0.0
06 23:55 SW 14 10.00 Fair CLR 37.6 31.6 41.5 33.8 79% 30 30.06 0.0
06 23:35 SW 12 10.00 Fair CLR 36.5 31.6 83% 29 30.07 0.0
06 23:15 SW 9 10.00 Fair CLR 36.3 31.6 83% 30 30.07 0.0
06 22:55 SW 9 10.00 Fair CLR 35.6 31.5 85% 29 30.08 0.0
06 22:35 SW 7 10.00 Fair CLR 35.8 31.1 83% 31 30.08 0.0
06 22:15 SW 3 10.00 Fair CLR 34.2 30.7 87% 30.09 0.0
06 21:55 S 7 10.00 Fair CLR 34.7 30.9 86% 29 30.09 0.0
06 21:35 S 8 10.00 Fair CLR 35.6 31.1 84% 30 30.09 0.0
06 21:15 S 9 10.00 Fair CLR 35.6 31.3 84% 29 30.09 0.0
06 19:47 SE 6 10.00 Fair CLR 42.8 30.2 61% 40 30.1 0.0
06 17:47 S 7 10.00 Fair CLR 41 30.2 66% 37 30.1 0.0
06 15:47 SW 5 10.00 Mostly Cloudy BKN022 39.2 28.4 65% 36 30.12 0.0
06 14:47 Calm 10.00 Partly Cloudy SCT014 37.4 30.2 75% 30.13 0.0
06 13:47 Calm 6.00 Light Snow BKN009 BKN030 35.6 32 87% 30.14 0.0
06 12:47 NE 3 2.50 Light Snow BKN008 OVC027 33.8 30.2 87% 30.16 0.0
06 11:47 NE 9 4.00 Overcast BKN009 OVC043 33.8 30.2 87% 27 30.16 0.0
06 08:47 N 10 0.50 Light Snow OVC004 33.8 32 93% 26 30.1 0.0
06 07:47 N 3 1.00 Light Snow OVC004 33.8 32 93% 30.1 0.0
06 06:35 N 5 5.00 Light Snow OVC002 32.5 32 98% 29 30.08 0.0
06 06:15 N 6 1.75 Light Snow OVC002 32.5 32 98% 28 30.06 0.0
06 05:55 N 6 0.75 Fog/Mist OVC002 32.5 32 33.4 32.4 98% 28 30.06 0.0
06 05:35 NE 5 1.00 Fog/Mist OVC002 32.4 32 99% 28 30.05 0.0
06 05:15 N 6 3.00 Light Snow OVC002 32.5 32 98% 28 30.04 0.0
06 04:55 N 5 3.00 Fog/Mist OVC002 32.5 32 98% 29 30.04 0.0
06 04:35 N 5 3.00 Light Snow OVC002 32.9 32 97% 29 30.05 0.0
06 04:15 N 5 4.00 Light Snow OVC002 32.5 32 98% 29 30.06 0.0
06 03:55 N 5 1.75 Light Snow OVC002 32.5 32 98% 29 30.04 0.0
06 03:35 NE 5 4.00 Light Snow OVC004 32.5 32 98% 29 30.04 0.0
06 03:15 NE 6 4.00 Light Snow OVC004 32.7 32 97% 28 30.04 0.0
06 02:55 NE 6 4.00 Light Snow OVC004 32.9 32 97% 28 30.04 0.0
06 02:35 N 8 2.00 Light Snow OVC004 32.9 32 97% 27 30.04 0.0
06 02:15 NE 8 1.75 Light Snow OVC004 32.9 32 97% 27 30.04 0.0
06 01:55 N 7 1.50 Light Snow OVC002 33.1 32 96% 28 30.04 0.0
06 01:35 N 7 1.75 Light Snow OVC002 33.4 32.2 95% 28 30.04 0.0
06 01:15 N 7 2.50 Light Snow OVC002 33.4 32.2 95% 28 30.04 0.0
06 00:55 N 7 3.00 Light Snow OVC002 33.4 32.2 95% 28 30.04 0.0
06 00:35 N 7 2.50 Light Snow OVC002 33.4 32.2 95% 28 30.03 0.0
06 00:15 N 6 2.50 Light Snow OVC002 33.4 32.2 95% 29 30.03 0.0
05 23:55 N 6 3.00 Light Snow OVC002 33.4 32.2 95% 29 30.03 0.0
05 23:35 N 6 1.50 Light Snow OVC002 33.4 32.2 95% 29 30.02 0.0
05 22:50 N 6 2.00 Light Snow OVC004 33.8 32.4 94% 29 30.01 0.0
05 22:35 N 6 3.00 Light Snow BKN004 OVC009 33.8 32.4 94% 29 30.02 0.0
05 22:15 N 8 1.75 Light Snow BKN004 OVC009 33.8 32.5 95% 28 30.02 0.0
05 21:55 N 6 2.00 Light Snow OVC004 34 32.9 96% 29 30.01 0.0
05 21:35 N 6 1.75 Light Snow SCT004 OVC010 34 32.9 96% 29 30.01 0.0
05 21:15 N 6 1.75 Light Snow SCT004 OVC010 34 32.9 96% 29 30 0.0
05 17:47 NE 10 1.50 Light Snow OVC006 35.6 33.8 93% 29 29.93 0.0
05 16:47 N 15 G 18 10.00 Light Drizzle BKN006 OVC019 37.4 35.6 93% 29 29.93 0.0
05 15:47 E 10 10.00 Light Drizzle BKN010 OVC019 42.8 37.4 81% 38 29.9 0.0
05 14:47 NE 10 10.00 Overcast BKN009 OVC035 42.8 37.4 81% 38 29.93 0.0
05 13:47 NE 7 4.00 Fog/Mist BKN007 OVC012 41 39.2 93% 37 29.94 0.0
05 12:47 E 9 4.00 Fog/Mist BKN005 OVC016 41 39.2 93% 36 29.95 0.0
05 11:47 NE 6 5.00 Fog/Mist BKN013 BKN018 41 37.4 87% 38 29.97 0.0
05 10:47 E 7 2.50 Fog/Mist OVC005 39.2 37.4 93% 35 29.98 0.0
05 09:47 NE 7 3.00 Light Rain OVC005 37.4 37.4 100% 33 29.99 0.0
05 08:47 NE 7 4.00 Light Rain OVC005 37.4 37.4 100% 33 29.99 0.0
05 07:47 NE 7 4.00 Drizzle OVC005 39.2 37.4 93% 35 29.99 0.0
05 06:47 NE 13 4.00 Light Rain BKN006 OVC022 39.2 37.4 93% 32 29.96 0.0
05 06:35 NE 12 2.50 Light Rain SCT006 OVC020 39 36.9 92% 32 29.96 0.0
05 06:15 E 12 4.00 Light Rain SCT008 BKN014 OVC018 39.6 36.9 90% 33 29.94 0.0
05 05:55 E 10 7.00 Light Rain OVC011 41 38.3 49.5 41 90% 35 29.94 0.0
05 05:35 E 12 10.00 Overcast BKN011 OVC017 41 37.8 88% 35 29.93 0.0
05 05:15 E 14 10.00 Light Drizzle OVC009 41.4 38.7 90% 35 29.91 0.0
05 04:55 E 15 G 20 10.00 Light Drizzle OVC007 41.9 39.4 91% 35 29.91 0.0
05 04:35 E 18 G 22 10.00 Overcast OVC005 42.3 39.9 91% 34 29.9 0.0
05 04:15 E 13 G 20 10.00 Overcast SCT007 OVC016 44.2 41.9 92% 39 29.89 0.0
Date Time (mdt) Wind (mph) Vis. (mi.) Weather Sky Cond. Air Dwpt Max. Min. Relative Humidity Wind Chill (°F) Heat Index (°F) altimeter (in) sea level (mb) 1 hr 3 hr 6 hr
6 hour
Temperature (ºF) Pressure Precipitation (in)